createdAt,value
2022-11-16T00:01:10.126Z,7.73
2022-11-16T00:03:39.859Z,7.13
2022-11-16T00:06:11.327Z,9.27
2022-11-16T00:08:50.007Z,9.53
2022-11-16T00:11:19.507Z,9.67
2022-11-16T00:13:48.969Z,6.53
2022-11-16T00:16:19.840Z,9.30
2022-11-16T00:18:49.304Z,11.90
2022-11-16T00:21:18.740Z,8.93
2022-11-16T00:23:48.333Z,6.67
2022-11-16T00:26:17.837Z,5.77
2022-11-16T00:28:47.533Z,6.57
2022-11-16T00:31:16.963Z,9.20
2022-11-16T00:33:46.430Z,13.10
2022-11-16T00:36:16.579Z,10.43
2022-11-16T00:38:46.102Z,8.27
2022-11-16T00:41:15.778Z,13.90
2022-11-16T00:43:45.248Z,16.53
2022-11-16T00:46:14.688Z,12.00
2022-11-16T00:48:44.145Z,11.13
2022-11-16T00:51:13.736Z,9.27
2022-11-16T00:53:43.190Z,12.73
2022-11-16T00:56:12.639Z,11.90
2022-11-16T00:58:42.102Z,11.73
2022-11-16T01:01:13.160Z,11.07
2022-11-16T01:03:43.088Z,9.50
2022-11-16T01:06:15.453Z,7.77
2022-11-16T01:08:46.067Z,8.43
2022-11-16T01:11:35.564Z,6.70
2022-11-16T01:14:08.733Z,9.03
2022-11-16T01:16:38.323Z,6.03
2022-11-16T01:19:08.490Z,4.53
2022-11-16T01:21:38.027Z,5.80
2022-11-16T01:24:07.738Z,6.53
2022-11-16T01:26:37.189Z,5.13
2022-11-16T01:29:06.665Z,3.73
2022-11-16T01:31:36.104Z,7.70
2022-11-16T01:34:05.558Z,5.03
2022-11-16T01:36:36.683Z,4.87
2022-11-16T01:39:06.996Z,6.77
2022-11-16T01:41:36.446Z,8.97
2022-11-16T01:44:27.328Z,7.33
2022-11-16T01:46:56.761Z,6.70
2022-11-16T01:49:31.066Z,4.90
2022-11-16T01:52:08.023Z,7.40
2022-11-16T01:54:59.933Z,8.07
2022-11-16T01:57:40.134Z,4.37
2022-11-16T02:00:13.445Z,10.70
2022-11-16T02:02:43.796Z,7.87
2022-11-16T02:05:17.701Z,7.93
2022-11-16T02:08:15.571Z,8.50
2022-11-16T02:11:01.131Z,8.90
2022-11-16T02:13:41.032Z,7.17
2022-11-16T02:16:20.982Z,8.70
2022-11-16T02:19:13.060Z,7.13
2022-11-16T02:21:58.426Z,10.00
2022-11-16T02:24:50.411Z,9.20
2022-11-16T02:28:04.053Z,8.07
2022-11-16T02:30:34.005Z,8.77
2022-11-16T02:33:08.053Z,13.00
2022-11-16T02:35:44.862Z,9.90
2022-11-16T02:38:18.909Z,7.57
2022-11-16T02:40:53.362Z,6.23
2022-11-16T02:43:36.159Z,7.20
2022-11-16T02:46:13.367Z,9.63
2022-11-16T02:48:47.432Z,6.50
2022-11-16T02:51:18.483Z,7.60
2022-11-16T02:54:08.628Z,8.97
2022-11-16T02:56:56.921Z,12.20
2022-11-16T02:59:30.995Z,8.40
2022-11-16T03:02:10.560Z,12.47
2022-11-16T03:05:01.270Z,9.13
2022-11-16T03:07:37.983Z,13.30
2022-11-16T03:10:08.350Z,7.93
2022-11-16T03:12:41.307Z,7.27
2022-11-16T03:15:14.036Z,9.40
2022-11-16T03:17:47.581Z,8.37
2022-11-16T03:20:31.127Z,8.17
2022-11-16T03:23:07.289Z,5.67
2022-11-16T03:25:44.169Z,11.97
2022-11-16T03:28:18.223Z,8.60
2022-11-16T03:30:55.025Z,7.03
2022-11-16T03:33:31.648Z,8.20
2022-11-16T03:36:26.404Z,9.70
2022-11-16T03:38:59.593Z,8.93
2022-11-16T03:41:32.557Z,11.55
2022-11-16T03:44:04.884Z,11.30
2022-11-16T03:46:34.331Z,11.87
2022-11-16T03:49:04.166Z,11.30
2022-11-16T03:51:33.784Z,10.60
2022-11-16T03:54:03.247Z,10.73
2022-11-16T03:56:32.675Z,9.97
2022-11-16T03:59:02.157Z,10.23
2022-11-16T04:01:31.596Z,10.77
2022-11-16T04:04:01.041Z,11.63
2022-11-16T04:06:48.271Z,8.80
2022-11-16T04:09:35.439Z,7.90
2022-11-16T04:12:22.849Z,10.03
2022-11-16T04:15:10.208Z,13.23
2022-11-16T04:17:57.429Z,13.50
2022-11-16T04:20:45.176Z,15.17
2022-11-16T04:23:35.539Z,12.30
2022-11-16T04:26:07.476Z,11.73
2022-11-16T04:28:37.938Z,11.93
2022-11-16T04:31:25.945Z,17.40
2022-11-16T04:34:13.396Z,13.33
2022-11-16T04:37:00.696Z,13.30
2022-11-16T04:39:30.138Z,12.07
2022-11-16T04:42:19.160Z,12.10
2022-11-16T04:45:06.180Z,16.57
2022-11-16T04:47:35.625Z,12.60
2022-11-16T04:50:05.999Z,11.13
2022-11-16T04:52:35.447Z,12.47
2022-11-16T04:55:05.051Z,10.57
2022-11-16T04:57:34.497Z,10.57
2022-11-16T05:00:05.690Z,9.90
2022-11-16T05:02:35.231Z,9.00
2022-11-16T05:05:04.764Z,18.13
2022-11-16T05:07:34.639Z,14.83
2022-11-16T05:10:04.547Z,10.27
2022-11-16T05:12:34.741Z,10.07
2022-11-16T05:15:05.606Z,9.37
2022-11-16T05:17:35.876Z,11.27
2022-11-16T05:20:24.775Z,12.37
2022-11-16T05:22:59.534Z,12.30
2022-11-16T05:25:33.842Z,16.97
2022-11-16T05:28:00.351Z,12.57
2022-11-16T05:30:29.812Z,17.27
2022-11-16T05:32:59.260Z,14.27
2022-11-16T05:35:28.720Z,15.43
2022-11-16T05:37:58.172Z,12.80
2022-11-16T05:40:27.630Z,12.37
2022-11-16T05:42:58.701Z,16.17
2022-11-16T05:45:28.155Z,11.20
2022-11-16T05:47:57.598Z,13.83
2022-11-16T05:50:27.060Z,11.07
2022-11-16T05:52:56.506Z,14.17
2022-11-16T05:55:25.973Z,17.13
2022-11-16T05:57:55.429Z,21.37
2022-11-16T06:00:24.891Z,15.27
2022-11-16T06:02:54.376Z,14.77
2022-11-16T06:05:23.894Z,15.07
2022-11-16T06:07:53.330Z,12.27
2022-11-16T06:10:22.864Z,15.70
2022-11-16T06:12:52.309Z,16.60
2022-11-16T06:15:21.801Z,13.97
2022-11-16T06:17:51.262Z,20.37
2022-11-16T06:20:20.732Z,20.23
2022-11-16T06:22:50.172Z,16.83
2022-11-16T06:25:20.186Z,15.50
2022-11-16T06:27:49.631Z,19.50
2022-11-16T06:30:19.275Z,14.63
2022-11-16T06:32:48.779Z,15.67
2022-11-16T06:35:18.674Z,12.37
2022-11-16T06:37:48.117Z,10.30
2022-11-16T06:40:17.902Z,16.87
2022-11-16T06:42:47.318Z,13.67
2022-11-16T06:45:16.784Z,14.10
2022-11-16T06:47:46.221Z,12.23
2022-11-16T06:50:17.493Z,11.27
2022-11-16T06:52:49.929Z,11.07
2022-11-16T06:55:19.449Z,19.20
2022-11-16T06:57:48.894Z,14.40
2022-11-16T07:00:18.987Z,15.10
2022-11-16T07:02:48.691Z,11.93
2022-11-16T07:05:18.294Z,16.47
2022-11-16T07:07:48.491Z,14.60
2022-11-16T07:10:17.960Z,22.23
2022-11-16T07:12:47.393Z,13.87
2022-11-16T07:15:16.872Z,17.90
2022-11-16T07:17:46.376Z,16.53
2022-11-16T07:20:15.916Z,19.07
2022-11-16T07:22:45.626Z,13.90
2022-11-16T07:25:15.090Z,14.40
2022-11-16T07:27:44.535Z,14.57
2022-11-16T07:30:14.659Z,17.47
2022-11-16T07:32:44.110Z,22.90
2022-11-16T07:35:13.570Z,13.40
2022-11-16T07:37:43.289Z,15.53
2022-11-16T07:40:12.990Z,10.77
2022-11-16T07:42:43.623Z,13.40
2022-11-16T07:45:13.062Z,24.33
2022-11-16T07:47:42.665Z,13.37
2022-11-16T07:50:12.106Z,10.43
2022-11-16T07:52:41.557Z,13.67
2022-11-16T07:55:11.017Z,18.00
2022-11-16T07:57:40.465Z,15.03
2022-11-16T08:00:11.527Z,15.60
2022-11-16T08:02:41.047Z,15.17
2022-11-16T08:05:10.833Z,13.87
2022-11-16T08:07:40.380Z,16.77
2022-11-16T08:10:10.516Z,24.63
2022-11-16T08:12:40.096Z,16.10
2022-11-16T08:15:10.056Z,15.67
2022-11-16T08:17:39.513Z,22.47
2022-11-16T08:20:10.236Z,15.67
2022-11-16T08:22:39.760Z,16.70
2022-11-16T08:25:10.011Z,16.33
2022-11-16T08:27:39.547Z,20.87
2022-11-16T08:30:10.385Z,16.20
2022-11-16T08:32:41.669Z,20.23
2022-11-16T08:35:11.766Z,14.87
2022-11-16T08:37:41.214Z,14.60
2022-11-16T08:40:11.514Z,18.97
2022-11-16T08:42:43.891Z,23.07
2022-11-16T08:45:12.379Z,11.97
2022-11-16T08:47:41.926Z,23.80
2022-11-16T08:50:11.489Z,18.50
2022-11-16T08:52:40.958Z,21.83
2022-11-16T08:55:10.699Z,17.77
2022-11-16T08:57:40.428Z,17.23
2022-11-16T09:00:11.254Z,15.27
2022-11-16T09:02:41.099Z,22.50
2022-11-16T09:05:12.075Z,27.60
2022-11-16T09:07:43.729Z,24.67
2022-11-16T09:10:14.120Z,19.77
2022-11-16T09:12:43.598Z,22.87
2022-11-16T09:15:13.045Z,14.73
2022-11-16T09:17:42.511Z,18.60
2022-11-16T09:20:12.157Z,27.30
2022-11-16T09:22:41.994Z,18.40
2022-11-16T09:25:11.912Z,24.13
2022-11-16T09:27:41.399Z,20.00
2022-11-16T09:30:11.783Z,20.97
2022-11-16T09:32:41.247Z,17.33
2022-11-16T09:35:11.298Z,15.40
2022-11-16T09:37:40.774Z,17.37
2022-11-16T09:40:12.497Z,15.37
2022-11-16T09:43:09.353Z,22.20
2022-11-16T09:46:14.346Z,11.73
2022-11-16T09:49:16.882Z,12.83
2022-11-16T09:51:40.897Z,15.03
2022-11-16T09:54:17.750Z,12.23
2022-11-16T09:56:50.029Z,16.47
2022-11-16T09:59:30.418Z,15.10
2022-11-16T10:02:19.438Z,10.05
2022-11-16T10:05:15.001Z,10.90
2022-11-16T10:07:51.910Z,12.47
2022-11-16T10:10:37.777Z,9.10
2022-11-16T10:13:43.918Z,11.63
2022-11-16T10:16:20.971Z,8.63
2022-11-16T10:18:57.451Z,9.23
2022-11-16T10:21:57.287Z,10.53
2022-11-16T10:24:33.242Z,11.73
2022-11-16T10:27:27.831Z,10.53
2022-11-16T10:30:14.122Z,10.37
2022-11-16T10:32:57.038Z,11.10
2022-11-16T10:35:46.829Z,8.17
2022-11-16T10:38:23.220Z,10.77
2022-11-16T10:41:00.293Z,7.67
2022-11-16T10:43:33.897Z,10.83
2022-11-16T10:46:19.705Z,11.93
2022-11-16T10:49:14.365Z,10.60
2022-11-16T10:51:45.173Z,11.10
2022-11-16T10:54:19.309Z,13.97
2022-11-16T10:56:56.132Z,11.53
2022-11-16T10:59:41.235Z,9.63
2022-11-16T11:02:34.814Z,9.80
2022-11-16T11:05:26.907Z,10.83
2022-11-16T11:08:09.545Z,8.40
2022-11-16T11:10:43.372Z,15.33
2022-11-16T11:13:17.476Z,17.67
2022-11-16T11:15:48.144Z,12.50
2022-11-16T11:18:30.158Z,11.67
2022-11-16T11:21:24.398Z,11.77
2022-11-16T11:24:22.749Z,10.80
2022-11-16T11:26:39.188Z,14.07
2022-11-16T11:29:25.645Z,11.80
2022-11-16T11:32:02.202Z,11.83
2022-11-16T11:34:35.717Z,8.93
2022-11-16T11:37:07.663Z,12.13
2022-11-16T11:39:38.547Z,10.67
2022-11-16T11:42:21.912Z,11.43
2022-11-16T11:45:01.688Z,12.50
2022-11-16T11:48:05.825Z,9.30
2022-11-16T11:51:03.476Z,12.10
2022-11-16T11:53:54.547Z,10.10
2022-11-16T11:56:24.726Z,9.50
2022-11-16T11:58:55.077Z,10.23
2022-11-16T12:02:07.101Z,10.77
2022-11-16T12:05:03.707Z,8.90
2022-11-16T12:07:59.926Z,11.03
2022-11-16T12:11:00.565Z,9.37
2022-11-16T12:14:00.381Z,11.03
2022-11-16T12:17:28.671Z,13.73
2022-11-16T12:20:20.154Z,15.60
2022-11-16T12:23:36.210Z,12.50
2022-11-16T12:26:18.331Z,12.40
2022-11-16T12:29:27.510Z,8.53
2022-11-16T12:32:31.911Z,13.57
2022-11-16T12:35:28.445Z,12.63
2022-11-16T12:38:09.345Z,15.33
2022-11-16T12:41:05.853Z,13.53
2022-11-16T12:43:55.885Z,11.97
2022-11-16T12:47:04.565Z,11.07
2022-11-16T12:49:56.713Z,13.23
2022-11-16T12:52:47.094Z,15.47
2022-11-16T12:55:39.034Z,16.57
2022-11-16T12:58:39.443Z,12.30
2022-11-16T13:01:25.336Z,14.97
2022-11-16T13:04:23.410Z,16.90
2022-11-16T13:07:12.462Z,15.13
2022-11-16T13:09:46.544Z,10.40
2022-11-16T13:12:22.438Z,14.00
2022-11-16T13:15:02.695Z,12.10
2022-11-16T13:17:36.549Z,10.63
2022-11-16T13:20:45.582Z,9.90
2022-11-16T13:24:09.627Z,11.80
2022-11-16T13:27:01.674Z,12.40
2022-11-16T13:29:45.706Z,9.80
2022-11-16T13:32:58.029Z,13.37
2022-11-16T13:35:28.406Z,12.70
2022-11-16T13:37:57.866Z,10.57
2022-11-16T13:40:31.788Z,9.87
2022-11-16T13:43:17.609Z,9.77
2022-11-16T13:45:57.869Z,9.27
2022-11-16T13:48:40.514Z,12.27
2022-11-16T13:51:20.606Z,9.10
2022-11-16T13:56:28.944Z,12.90
2022-11-16T13:58:56.478Z,10.03
2022-11-16T14:01:26.998Z,10.10
2022-11-16T14:04:17.770Z,12.17
2022-11-16T14:06:51.837Z,10.17
2022-11-16T14:09:48.917Z,7.70
2022-11-16T14:12:53.406Z,7.90
2022-11-16T14:15:26.881Z,9.87
2022-11-16T14:18:10.313Z,9.03
2022-11-16T14:21:04.923Z,8.93
2022-11-16T14:24:09.923Z,8.57
2022-11-16T14:27:16.983Z,9.43
2022-11-16T14:30:06.044Z,11.73
2022-11-16T14:32:42.784Z,8.47
2022-11-16T14:35:24.993Z,9.17
2022-11-16T14:38:24.888Z,10.03
2022-11-16T14:40:59.666Z,7.50
2022-11-16T14:43:41.881Z,7.73
2022-11-16T14:46:18.649Z,7.30
2022-11-16T14:48:50.400Z,8.37
2022-11-16T14:51:29.954Z,7.13
2022-11-16T14:54:06.563Z,6.97
2022-11-16T14:56:36.075Z,8.30
2022-11-16T14:59:05.539Z,5.20
2022-11-16T15:01:41.712Z,8.17
2022-11-16T15:04:13.441Z,7.00
2022-11-16T15:06:53.044Z,6.07
2022-11-16T15:09:39.298Z,4.83
2022-11-16T15:12:43.903Z,5.47
2022-11-16T15:15:18.180Z,5.93
2022-11-16T15:18:04.158Z,6.50
2022-11-16T15:20:37.265Z,5.50
2022-11-16T15:23:10.388Z,6.77
2022-11-16T15:25:46.967Z,7.10
2022-11-16T15:28:26.011Z,8.30
2022-11-16T15:31:04.710Z,6.70
2022-11-16T15:33:38.629Z,6.83
2022-11-16T15:36:36.082Z,6.23
2022-11-16T15:39:07.754Z,6.13
2022-11-16T15:41:39.501Z,9.67
2022-11-16T15:44:15.621Z,6.13
2022-11-16T15:46:44.010Z,5.77
2022-11-16T15:49:23.721Z,7.17
2022-11-16T15:51:53.171Z,6.03
2022-11-16T15:54:33.192Z,5.77
2022-11-16T15:57:13.418Z,6.10
2022-11-16T15:59:44.426Z,8.40
2022-11-16T16:02:28.557Z,7.53
2022-11-16T16:04:58.645Z,6.80
2022-11-16T16:07:45.192Z,6.53
2022-11-16T16:10:25.582Z,6.13
2022-11-16T16:12:58.544Z,6.27
2022-11-16T16:15:36.623Z,5.80
2022-11-16T16:18:17.653Z,5.97
2022-11-16T16:20:50.023Z,5.37
2022-11-16T16:23:24.085Z,8.83
2022-11-16T16:25:53.551Z,6.13
2022-11-16T16:28:23.008Z,5.00
2022-11-16T16:30:55.421Z,5.73
2022-11-16T16:33:26.512Z,4.40
2022-11-16T16:35:56.167Z,3.47
2022-11-16T16:38:25.682Z,4.50
2022-11-16T16:41:05.695Z,4.90
2022-11-16T16:43:35.775Z,5.27
2022-11-16T16:46:05.798Z,5.27
2022-11-16T16:48:37.997Z,5.60
2022-11-16T16:51:06.489Z,4.40
2022-11-16T16:53:36.697Z,5.20
2022-11-16T16:56:07.263Z,6.67
2022-11-16T16:58:36.728Z,7.10
2022-11-16T17:01:07.202Z,5.83
2022-11-16T17:03:37.014Z,7.40
2022-11-16T17:06:06.886Z,7.27
2022-11-16T17:08:38.939Z,7.10
2022-11-16T17:11:09.033Z,8.27
2022-11-16T17:13:38.484Z,7.57
2022-11-16T17:16:08.264Z,11.27
2022-11-16T17:18:37.710Z,11.87
2022-11-16T17:21:11.993Z,11.57
2022-11-16T17:23:41.581Z,10.60
2022-11-16T17:26:11.096Z,7.90
2022-11-16T17:28:40.574Z,6.67
2022-11-16T17:31:12.417Z,6.13
2022-11-16T17:33:44.386Z,5.07
2022-11-16T17:36:15.120Z,7.40
2022-11-16T17:38:44.576Z,7.37
2022-11-16T17:41:17.971Z,6.60
2022-11-16T17:43:48.512Z,6.00
2022-11-16T17:46:20.452Z,5.43
2022-11-16T17:48:51.322Z,5.30
2022-11-16T17:51:24.360Z,4.83
2022-11-16T17:53:55.021Z,7.60
2022-11-16T17:56:26.985Z,5.47
2022-11-16T17:58:58.545Z,4.70
2022-11-16T18:01:28.691Z,5.03
2022-11-16T18:03:58.187Z,5.47
2022-11-16T18:06:27.970Z,7.13
2022-11-16T18:08:58.398Z,5.70
2022-11-16T18:11:29.525Z,5.67
2022-11-16T18:14:01.593Z,5.30
2022-11-16T18:16:34.011Z,5.13
2022-11-16T18:19:06.900Z,5.33
2022-11-16T18:21:43.344Z,5.60
2022-11-16T18:24:13.954Z,5.27
2022-11-16T18:26:43.584Z,5.00
2022-11-16T18:29:14.846Z,4.70
2022-11-16T18:31:44.363Z,4.50
2022-11-16T18:34:16.098Z,5.20
2022-11-16T18:36:47.161Z,5.60
2022-11-16T18:39:17.884Z,4.63
2022-11-16T18:41:54.821Z,4.60
2022-11-16T18:44:21.317Z,5.27
2022-11-16T18:46:50.761Z,5.87
2022-11-16T18:49:20.208Z,4.27
2022-11-16T18:51:49.724Z,4.97
2022-11-16T18:54:19.380Z,5.50
2022-11-16T18:56:48.881Z,4.50
2022-11-16T18:59:18.726Z,3.97
2022-11-16T19:01:48.160Z,4.50
2022-11-16T19:04:17.625Z,4.97
2022-11-16T19:06:47.068Z,5.87
2022-11-16T19:09:16.581Z,4.60
2022-11-16T19:11:46.299Z,4.30
2022-11-16T19:14:15.763Z,4.13
2022-11-16T19:16:52.585Z,4.30
2022-11-16T19:19:18.035Z,5.27
2022-11-16T19:21:47.545Z,5.23
2022-11-16T19:24:16.996Z,4.63
2022-11-16T19:26:46.436Z,4.17
2022-11-16T19:29:15.896Z,4.40
2022-11-16T19:31:45.345Z,3.83
2022-11-16T19:34:15.870Z,4.53
2022-11-16T19:36:45.313Z,3.20
2022-11-16T19:39:14.757Z,3.33
2022-11-16T19:41:44.201Z,3.40
2022-11-16T19:44:13.664Z,3.60
2022-11-16T19:46:43.106Z,3.57
2022-11-16T19:49:19.649Z,3.60
2022-11-16T19:51:45.422Z,3.30
2022-11-16T19:54:15.043Z,4.00
2022-11-16T19:56:49.290Z,5.13
2022-11-16T19:59:17.625Z,4.80
2022-11-16T20:01:47.072Z,4.50
2022-11-16T20:04:16.535Z,4.00
2022-11-16T20:06:46.012Z,4.03
2022-11-16T20:09:15.465Z,3.23
2022-11-16T20:11:44.909Z,2.70
2022-11-16T20:14:15.141Z,3.40
2022-11-16T20:16:50.350Z,5.30
2022-11-16T20:19:20.880Z,4.00
2022-11-16T20:21:50.320Z,4.80
2022-11-16T20:24:20.185Z,3.87
2022-11-16T20:26:50.768Z,3.97
2022-11-16T20:29:21.063Z,3.37
2022-11-16T20:31:50.499Z,3.97
2022-11-16T20:34:22.092Z,3.70
2022-11-16T20:36:51.772Z,3.90
2022-11-16T20:39:22.560Z,3.80
2022-11-16T20:41:52.069Z,4.37
2022-11-16T20:44:22.599Z,4.63
2022-11-16T20:46:55.344Z,5.00
2022-11-16T20:49:24.866Z,4.90
2022-11-16T20:51:54.343Z,4.17
2022-11-16T20:54:24.484Z,3.90
2022-11-16T20:56:53.980Z,4.00
2022-11-16T20:59:23.435Z,4.57
2022-11-16T21:01:52.966Z,4.37
2022-11-16T21:04:22.798Z,4.23
2022-11-16T21:06:52.306Z,4.47
2022-11-16T21:09:23.428Z,3.63
2022-11-16T21:12:11.013Z,4.50
2022-11-16T21:14:40.442Z,4.23
2022-11-16T21:17:09.884Z,5.03
2022-11-16T21:19:39.410Z,4.83
2022-11-16T21:22:08.863Z,4.60
2022-11-16T21:24:38.314Z,4.17
2022-11-16T21:27:07.759Z,5.73
2022-11-16T21:29:37.201Z,4.50
2022-11-16T21:32:06.643Z,5.27
2022-11-16T21:34:40.094Z,5.20
2022-11-16T21:37:07.328Z,4.47
2022-11-16T21:39:36.788Z,3.70
2022-11-16T21:42:06.466Z,3.90
2022-11-16T21:44:44.854Z,4.37
2022-11-16T21:47:14.554Z,4.17
2022-11-16T21:50:16.470Z,4.50
2022-11-16T21:52:15.171Z,4.30
2022-11-16T21:54:51.993Z,4.47
2022-11-16T21:57:21.424Z,4.50
2022-11-16T21:59:51.183Z,4.40
2022-11-16T22:02:20.618Z,4.20
2022-11-16T22:05:07.847Z,5.80
2022-11-16T22:07:37.365Z,4.83
2022-11-16T22:10:10.158Z,4.20
2022-11-16T22:12:40.312Z,4.10
2022-11-16T22:15:10.505Z,4.23
2022-11-16T22:17:44.928Z,4.83
2022-11-16T22:20:14.401Z,4.50
2022-11-16T22:22:43.834Z,4.97
2022-11-16T22:25:14.154Z,5.47
2022-11-16T22:28:13.397Z,4.43
2022-11-16T22:30:17.005Z,4.60
2022-11-16T22:32:47.413Z,5.13
2022-11-16T22:35:16.865Z,4.73
2022-11-16T22:37:46.380Z,6.27
2022-11-16T22:40:17.931Z,4.90
2022-11-16T22:42:47.457Z,4.27
2022-11-16T22:45:16.911Z,3.70
2022-11-16T22:47:49.604Z,3.73
2022-11-16T22:50:17.614Z,3.77
2022-11-16T22:52:47.052Z,4.77
2022-11-16T22:55:16.682Z,4.73
2022-11-16T22:57:46.110Z,4.77
2022-11-16T23:00:15.898Z,6.40
2022-11-16T23:02:45.415Z,4.73
2022-11-16T23:05:14.890Z,3.63
2022-11-16T23:07:44.352Z,4.23
2022-11-16T23:10:13.877Z,4.37
2022-11-16T23:13:00.862Z,4.50
2022-11-16T23:15:48.083Z,4.40
2022-11-16T23:18:19.536Z,4.93
2022-11-16T23:21:06.653Z,4.10
2022-11-16T23:23:53.643Z,4.00
2022-11-16T23:26:44.637Z,4.63
2022-11-16T23:29:14.142Z,4.93
2022-11-16T23:31:43.620Z,4.77
2022-11-16T23:34:13.052Z,4.93
2022-11-16T23:36:43.185Z,4.63
2022-11-16T23:39:12.621Z,4.30
2022-11-16T23:41:59.904Z,4.33
2022-11-16T23:44:29.389Z,5.07
2022-11-16T23:46:58.842Z,4.87
2022-11-16T23:49:28.298Z,4.70
2022-11-16T23:51:57.735Z,4.63
2022-11-16T23:54:27.174Z,4.90
2022-11-16T23:56:56.651Z,4.77
2022-11-16T23:59:26.114Z,3.73
